Time;durP1;ratioP1;P1;durP2;ratioP2;P2;SDS_P1;SDS_P2;PMS_P1;PMS_P2;Temp;Humidity;BMP_temperature;BMP_pressure;BME280_temperature;BME280_humidity;BME280_pressure;Samples;Min_cycle;Max_cycle;Signal;HPM_P1;HPM_P2
2022/07/07 00:00:28;;;;;;;5.30;3.55;;;18.80;69.10;;;;;;4978064;28;20043;-69
2022/07/07 00:02:53;;;;;;;7.15;3.95;;;18.80;69.10;;;;;;4993855;28;20056;-67
2022/07/07 00:05:19;;;;;;;4.15;3.58;;;18.80;69.30;;;;;;4994044;28;20512;-67
2022/07/07 00:07:45;;;;;;;6.05;3.25;;;18.70;69.20;;;;;;4974516;28;20522;-67
2022/07/07 00:10:12;;;;;;;6.10;3.60;;;18.70;69.20;;;;;;4994222;28;20046;-67
2022/07/07 00:12:38;;;;;;;5.65;3.40;;;18.70;69.10;;;;;;4994312;28;20046;-67
2022/07/07 00:15:05;;;;;;;5.15;3.22;;;18.70;69.20;;;;;;4974894;28;20116;-67
2022/07/07 00:17:31;;;;;;;5.40;3.17;;;18.70;69.30;;;;;;4991366;28;20090;-67
2022/07/07 00:19:57;;;;;;;4.50;3.53;;;18.70;69.10;;;;;;4993672;28;20066;-67
2022/07/07 00:22:22;;;;;;;7.05;3.30;;;18.70;69.00;;;;;;4994722;28;20561;-67
2022/07/07 00:24:48;;;;;;;4.55;2.92;;;18.70;68.90;;;;;;4995399;28;20173;-67
2022/07/07 00:27:14;;;;;;;6.70;3.60;;;18.60;68.90;;;;;;4993661;28;20038;-67
2022/07/07 00:29:39;;;;;;;5.72;2.92;;;18.70;69.60;;;;;;4993542;28;20390;-67
2022/07/07 00:32:05;;;;;;;4.43;2.88;;;18.70;69.00;;;;;;4983986;28;20468;-67
2022/07/07 00:39:42;;;;;;;4.50;3.20;;;18.60;68.80;;;;;;5167152;22;20053;-62
2022/07/07 00:42:14;;;;;;;4.43;2.67;;;18.60;69.00;;;;;;5010358;28;20046;-64
2022/07/07 00:44:41;;;;;;;6.68;4.38;;;18.60;69.00;;;;;;5002456;28;20048;-63
2022/07/07 00:47:06;;;;;;;5.03;3.60;;;18.60;69.20;;;;;;5001130;28;20049;-64
2022/07/07 00:49:32;;;;;;;7.78;4.18;;;18.70;69.20;;;;;;5016753;28;20053;-63
2022/07/07 00:51:59;;;;;;;5.45;4.03;;;18.60;69.20;;;;;;5025897;28;20491;-63
2022/07/07 00:54:25;;;;;;;8.25;3.63;;;18.60;69.10;;;;;;5019981;28;20384;-63
2022/07/07 00:56:51;;;;;;;5.05;2.95;;;18.60;69.20;;;;;;4999444;28;20038;-63
2022/07/07 00:59:17;;;;;;;4.00;2.30;;;18.60;69.10;;;;;;5014166;28;20099;-63
2022/07/07 01:01:43;;;;;;;7.45;3.10;;;18.60;69.00;;;;;;5013671;28;20124;-63
2022/07/07 01:04:12;;;;;;;5.28;2.40;;;18.60;69.10;;;;;;5015365;28;20038;-63
2022/07/07 01:06:39;;;;;;;4.93;1.90;;;18.60;69.40;;;;;;5003788;28;20037;-63
2022/07/07 01:09:05;;;;;;;4.18;2.10;;;18.50;69.60;;;;;;4998599;28;20042;-63
2022/07/07 01:11:56;;;;;;;7.68;2.50;;;18.40;69.80;;;;;;5025042;28;20495;-63
2022/07/07 01:14:23;;;;;;;7.10;2.30;;;18.40;70.10;;;;;;4994885;28;20484;-63
2022/07/07 01:16:50;;;;;;;6.47;2.50;;;18.30;70.50;;;;;;5014326;28;20033;-63
2022/07/07 01:19:17;;;;;;;5.88;2.00;;;18.30;70.80;;;;;;5028451;28;20510;-63
2022/07/07 01:21:49;;;;;;;6.32;2.22;;;18.20;71.00;;;;;;5015090;28;20038;-63
2022/07/07 01:24:15;;;;;;;4.95;2.00;;;18.20;71.20;;;;;;5027438;28;20037;-63
2022/07/07 01:26:41;;;;;;;5.15;2.05;;;18.20;71.30;;;;;;5012930;28;20048;-63
2022/07/07 01:29:06;;;;;;;5.40;1.92;;;18.10;71.40;;;;;;5018875;28;20096;-63
2022/07/07 01:31:32;;;;;;;4.93;2.25;;;18.10;71.50;;;;;;5001408;28;20037;-63
2022/07/07 01:33:58;;;;;;;6.03;2.53;;;18.10;71.70;;;;;;5020663;28;20042;-63
2022/07/07 01:36:23;;;;;;;4.07;2.13;;;18.10;71.80;;;;;;4994362;28;20044;-63
2022/07/07 01:38:49;;;;;;;7.18;2.85;;;18.00;71.90;;;;;;5010520;28;20527;-63
2022/07/07 01:41:14;;;;;;;5.32;2.08;;;18.00;72.00;;;;;;5011489;28;20062;-63
2022/07/07 01:43:41;;;;;;;6.40;2.45;;;18.00;72.00;;;;;;4997234;28;20050;-63
2022/07/07 01:46:08;;;;;;;5.85;2.67;;;17.90;72.00;;;;;;4979670;28;20050;-63
2022/07/07 01:48:34;;;;;;;6.35;3.13;;;17.90;72.20;;;;;;5013138;28;20046;-63
2022/07/07 01:51:00;;;;;;;5.85;2.28;;;17.90;72.30;;;;;;5012058;28;20724;-63
2022/07/07 01:53:26;;;;;;;5.60;2.78;;;17.90;72.40;;;;;;4995819;28;20077;-63
2022/07/07 01:55:52;;;;;;;5.88;2.92;;;17.90;72.50;;;;;;5008874;28;20042;-63
2022/07/07 01:58:18;;;;;;;4.88;3.13;;;17.80;72.70;;;;;;5012788;28;20139;-63
2022/07/07 02:00:43;;;;;;;2.97;2.58;;;17.90;72.90;;;;;;5012633;28;20497;-63
2022/07/07 02:03:09;;;;;;;5.20;2.20;;;17.90;72.90;;;;;;4993742;28;20046;-63
2022/07/07 02:05:35;;;;;;;3.88;2.10;;;17.90;72.90;;;;;;5012765;28;20042;-63
2022/07/07 02:08:00;;;;;;;4.65;2.40;;;17.90;72.90;;;;;;4994466;28;20073;-63
2022/07/07 02:13:11;;;;;;;5.40;1.75;;;17.80;73.00;;;;;;4995060;28;20045;-63
2022/07/07 02:15:36;;;;;;;4.18;2.10;;;17.80;72.90;;;;;;4995634;28;20078;-63
2022/07/07 02:18:02;;;;;;;4.07;2.08;;;17.80;72.90;;;;;;5012239;28;20076;-63
2022/07/07 02:20:28;;;;;;;4.32;1.92;;;17.80;72.90;;;;;;5013001;28;20044;-63
2022/07/07 02:22:53;;;;;;;4.15;2.00;;;17.90;73.00;;;;;;5012734;28;20104;-63
2022/07/07 02:25:19;;;;;;;4.65;2.22;;;17.80;72.90;;;;;;5010073;28;20042;-63
2022/07/07 02:27:45;;;;;;;3.15;1.70;;;17.80;73.00;;;;;;5012365;28;20073;-63
2022/07/07 02:30:11;;;;;;;4.28;1.92;;;17.90;72.90;;;;;;4995353;28;20041;-63
2022/07/07 02:32:36;;;;;;;4.88;2.42;;;17.80;72.90;;;;;;4994958;28;20068;-63
2022/07/07 02:35:02;;;;;;;4.93;2.92;;;17.90;72.90;;;;;;4975448;28;20125;-63
2022/07/07 02:37:28;;;;;;;4.07;2.38;;;17.90;72.90;;;;;;5011635;28;20073;-63
2022/07/07 02:39:54;;;;;;;8.63;2.55;;;17.90;73.00;;;;;;5004112;28;20065;-63
2022/07/07 02:42:20;;;;;;;4.00;1.83;;;17.90;73.00;;;;;;5012857;28;20050;-63
2022/07/07 02:44:45;;;;;;;6.40;2.75;;;17.90;73.00;;;;;;4993883;28;20056;-63
2022/07/07 02:47:11;;;;;;;4.15;2.65;;;17.90;73.10;;;;;;5015385;28;20038;-63
2022/07/07 02:49:37;;;;;;;4.82;2.45;;;17.90;73.20;;;;;;4998662;28;20100;-63
2022/07/07 02:52:04;;;;;;;5.55;2.55;;;17.90;73.30;;;;;;5016448;28;20049;-63
2022/07/07 02:54:30;;;;;;;5.97;2.65;;;17.90;73.40;;;;;;4993936;28;20046;-63
2022/07/07 02:56:55;;;;;;;7.22;2.22;;;17.80;73.50;;;;;;5015402;28;20456;-63
2022/07/07 02:59:21;;;;;;;6.65;1.88;;;17.80;73.60;;;;;;4998621;28;20034;-63
2022/07/07 03:01:47;;;;;;;6.90;2.40;;;17.80;73.60;;;;;;5016454;28;20077;-63
2022/07/07 03:04:13;;;;;;;6.68;2.30;;;17.70;73.60;;;;;;5015309;28;20042;-63
2022/07/07 03:06:38;;;;;;;6.40;2.10;;;17.70;73.50;;;;;;4997505;28;20133;-63
2022/07/07 03:09:04;;;;;;;7.82;1.90;;;17.70;73.60;;;;;;4998664;28;20049;-63
2022/07/07 03:11:30;;;;;;;7.22;2.00;;;17.70;73.70;;;;;;4997911;28;20065;-63
2022/07/07 03:13:55;;;;;;;9.52;2.65;;;17.60;73.60;;;;;;4994555;28;20076;-63
2022/07/07 03:16:21;;;;;;;10.20;2.45;;;17.70;73.70;;;;;;5015439;28;20038;-63
2022/07/07 03:18:47;;;;;;;9.45;2.38;;;17.60;73.70;;;;;;5015883;28;20046;-63
2022/07/07 03:21:12;;;;;;;5.45;2.10;;;17.60;73.90;;;;;;5015867;28;20425;-63
2022/07/07 03:23:38;;;;;;;7.90;2.10;;;17.50;73.80;;;;;;4997921;28;20121;-63
2022/07/07 03:26:03;;;;;;;8.68;2.47;;;17.50;73.80;;;;;;4997302;28;20077;-63
2022/07/07 03:28:29;;;;;;;12.57;3.40;;;17.50;74.00;;;;;;5014783;28;20046;-62
2022/07/07 03:30:55;;;;;;;8.40;2.35;;;17.40;74.10;;;;;;4997971;28;20042;-63
2022/07/07 03:33:21;;;;;;;9.90;2.20;;;17.50;74.30;;;;;;4988237;28;20442;-63
2022/07/07 03:35:46;;;;;;;6.75;2.00;;;17.40;74.40;;;;;;5013303;28;20511;-63
2022/07/07 03:38:12;;;;;;;9.15;2.03;;;17.40;74.50;;;;;;5014634;28;20038;-63
2022/07/07 03:40:38;;;;;;;9.32;2.03;;;17.30;74.60;;;;;;4981756;28;20106;-63
2022/07/07 03:43:04;;;;;;;12.13;3.00;;;17.30;74.70;;;;;;4987199;28;20061;-62
2022/07/07 03:45:29;;;;;;;9.45;2.28;;;17.30;74.70;;;;;;5008521;28;20042;-62
2022/07/07 03:47:55;;;;;;;7.28;2.38;;;17.30;74.70;;;;;;5015311;28;20049;-62
2022/07/07 03:50:21;;;;;;;8.00;1.92;;;17.30;74.80;;;;;;5015547;28;20042;-62
2022/07/07 03:52:46;;;;;;;6.30;1.90;;;17.20;74.70;;;;;;5014563;28;20064;-62
2022/07/07 03:55:12;;;;;;;8.50;1.52;;;17.30;74.70;;;;;;5013898;28;20060;-62
2022/07/07 03:57:39;;;;;;;8.32;1.70;;;17.30;74.70;;;;;;4998205;28;20050;-62
2022/07/07 04:00:05;;;;;;;7.50;2.15;;;17.30;74.70;;;;;;4997280;28;20120;-62
2022/07/07 04:02:31;;;;;;;8.10;1.85;;;17.30;74.60;;;;;;4991343;28;20110;-62
2022/07/07 04:04:57;;;;;;;7.55;1.90;;;17.20;74.50;;;;;;5010934;28;20045;-63
2022/07/07 04:07:23;;;;;;;8.07;1.77;;;17.30;74.50;;;;;;5013490;28;20054;-62
2022/07/07 04:09:48;;;;;;;8.32;1.63;;;17.30;74.20;;;;;;4997645;28;20038;-62
2022/07/07 04:12:14;;;;;;;6.50;1.33;;;17.20;74.00;;;;;;5014863;28;20042;-62
2022/07/07 04:14:40;;;;;;;4.78;1.10;;;17.20;73.70;;;;;;5013665;28;20362;-62
2022/07/07 04:17:06;;;;;;;7.18;1.30;;;17.20;73.50;;;;;;4995680;28;20048;-62
2022/07/07 04:19:32;;;;;;;6.75;1.60;;;17.20;73.40;;;;;;5003130;28;20113;-62
2022/07/07 04:21:57;;;;;;;7.32;1.23;;;17.20;73.30;;;;;;5014830;28;20100;-62
2022/07/07 04:24:23;;;;;;;6.25;1.50;;;17.20;73.20;;;;;;5012724;28;20070;-62
2022/07/07 04:26:49;;;;;;;8.82;1.70;;;17.20;73.00;;;;;;5014563;28;20048;-62
2022/07/07 04:29:15;;;;;;;5.45;1.13;;;17.20;72.90;;;;;;5014837;28;20044;-62
2022/07/07 04:31:44;;;;;;;8.80;1.65;;;17.10;72.80;;;;;;5014238;28;20048;-62
2022/07/07 04:34:11;;;;;;;6.07;1.75;;;17.10;72.70;;;;;;4995315;28;20048;-62
2022/07/07 04:36:37;;;;;;;10.20;1.42;;;17.10;72.60;;;;;;4997033;28;20073;-62
2022/07/07 04:39:02;;;;;;;6.10;1.20;;;17.10;72.40;;;;;;4996051;28;20128;-62
2022/07/07 04:41:28;;;;;;;4.53;1.15;;;17.10;72.30;;;;;;5013899;28;20095;-62
2022/07/07 04:43:54;;;;;;;6.22;1.40;;;17.10;72.30;;;;;;5011793;28;20048;-62
2022/07/07 04:46:19;;;;;;;5.68;1.27;;;17.00;72.20;;;;;;5014313;28;20060;-62
2022/07/07 04:48:45;;;;;;;9.50;1.30;;;17.00;72.20;;;;;;5012682;28;20091;-62
2022/07/07 04:51:11;;;;;;;5.28;1.00;;;17.00;72.40;;;;;;4980487;28;20033;-62
2022/07/07 04:53:36;;;;;;;8.30;1.30;;;17.00;72.40;;;;;;5013919;28;20050;-62
2022/07/07 04:56:03;;;;;;;5.35;1.27;;;17.00;72.30;;;;;;5014178;28;20121;-62
2022/07/07 04:58:29;;;;;;;5.07;1.42;;;17.00;72.30;;;;;;5013454;28;20481;-62
2022/07/07 05:00:54;;;;;;;6.53;1.33;;;17.00;72.30;;;;;;5013616;28;20076;-62
2022/07/07 05:03:20;;;;;;;6.57;1.20;;;17.00;72.30;;;;;;4996402;28;20038;-62
2022/07/07 05:05:46;;;;;;;7.75;1.27;;;17.00;72.30;;;;;;4994563;28;20038;-62
2022/07/07 05:08:11;;;;;;;5.85;1.50;;;17.00;72.30;;;;;;5012501;28;20050;-63
2022/07/07 05:10:37;;;;;;;5.82;1.05;;;17.00;72.50;;;;;;4996420;28;20044;-62
2022/07/07 05:13:03;;;;;;;9.10;2.03;;;17.00;72.60;;;;;;5014015;28;20034;-62
2022/07/07 05:15:28;;;;;;;6.68;2.38;;;17.00;72.70;;;;;;5013018;28;20034;-62
2022/07/07 05:17:54;;;;;;;7.90;1.60;;;17.10;73.00;;;;;;5013003;28;20033;-62
2022/07/07 05:20:20;;;;;;;5.80;1.63;;;17.10;73.20;;;;;;5013553;28;20632;-62
2022/07/07 05:22:45;;;;;;;4.88;1.17;;;17.30;73.20;;;;;;5005875;28;20050;-62
2022/07/07 05:25:11;;;;;;;6.03;1.55;;;17.40;73.00;;;;;;5011850;28;20431;-62
2022/07/07 05:27:37;;;;;;;8.02;2.03;;;17.60;72.90;;;;;;4990945;28;20610;-62
2022/07/07 05:30:03;;;;;;;6.72;1.73;;;17.80;72.60;;;;;;4993837;28;20069;-62
2022/07/07 05:32:29;;;;;;;6.38;1.42;;;18.10;72.10;;;;;;4994529;28;20038;-62
2022/07/07 05:34:54;;;;;;;6.65;1.17;;;18.30;71.10;;;;;;4995295;28;20125;-61
2022/07/07 05:37:20;;;;;;;7.63;1.48;;;18.50;69.90;;;;;;5013281;28;20052;-62
2022/07/07 05:39:46;;;;;;;7.90;1.77;;;18.70;69.00;;;;;;4988002;28;20148;-62
2022/07/07 05:42:12;;;;;;;9.57;1.65;;;18.80;68.40;;;;;;4992849;28;20107;-62
2022/07/07 05:44:38;;;;;;;7.35;2.45;;;18.80;67.60;;;;;;4988890;28;20401;-62
2022/07/07 05:47:04;;;;;;;11.93;2.63;;;18.80;67.10;;;;;;5006443;28;20096;-62
2022/07/07 05:49:29;;;;;;;6.22;1.50;;;18.90;66.50;;;;;;5001446;28;20045;-62
2022/07/07 05:51:55;;;;;;;9.40;1.80;;;18.90;66.30;;;;;;5010315;28;20034;-62
2022/07/07 05:54:21;;;;;;;8.07;1.70;;;18.80;66.00;;;;;;4990212;28;20042;-62
2022/07/07 05:56:46;;;;;;;10.88;2.20;;;18.80;65.90;;;;;;5012999;28;20049;-62
2022/07/07 05:59:12;;;;;;;7.15;1.75;;;18.80;66.30;;;;;;5013281;28;20045;-62
2022/07/07 06:01:37;;;;;;;9.15;2.47;;;18.90;66.90;;;;;;5012936;28;20401;-64
2022/07/07 06:04:03;;;;;;;9.25;1.77;;;19.00;66.70;;;;;;4986447;28;20121;-62
2022/07/07 06:06:29;;;;;;;7.63;1.77;;;19.20;66.20;;;;;;4989242;28;20048;-62
2022/07/07 06:08:55;;;;;;;6.32;2.20;;;19.30;65.60;;;;;;5008755;28;20053;-62
2022/07/07 06:11:20;;;;;;;8.07;1.88;;;19.40;65.20;;;;;;5012905;28;20113;-62
2022/07/07 06:13:46;;;;;;;7.60;1.80;;;19.50;64.80;;;;;;4990648;28;20092;-62
2022/07/07 06:16:12;;;;;;;6.40;1.83;;;19.60;64.80;;;;;;4977797;28;20485;-62
2022/07/07 06:18:37;;;;;;;8.13;1.75;;;19.60;64.40;;;;;;5006186;28;20116;-62
2022/07/07 06:21:03;;;;;;;8.15;2.13;;;19.60;63.80;;;;;;5013028;28;20044;-62
2022/07/07 06:23:29;;;;;;;7.55;1.75;;;19.70;63.20;;;;;;5010396;28;20550;-62
2022/07/07 06:25:54;;;;;;;5.30;1.60;;;19.70;63.50;;;;;;4993495;28;20042;-62
2022/07/07 06:28:20;;;;;;;6.05;1.55;;;19.70;63.50;;;;;;4992481;28;20083;-62
2022/07/07 06:30:45;;;;;;;4.47;1.10;;;19.80;63.50;;;;;;5012808;28;20041;-62
2022/07/07 06:33:11;;;;;;;7.18;1.48;;;19.90;63.10;;;;;;4995037;28;20042;-62
2022/07/07 06:35:37;;;;;;;5.53;1.25;;;20.10;63.00;;;;;;5012912;28;20133;-62
2022/07/07 06:38:03;;;;;;;8.18;1.50;;;20.30;62.30;;;;;;5012869;28;20485;-62
2022/07/07 06:40:28;;;;;;;6.55;1.40;;;20.40;61.60;;;;;;4995067;28;20505;-61
2022/07/07 06:42:54;;;;;;;4.35;0.88;;;20.50;60.70;;;;;;5012778;28;20060;-62
2022/07/07 06:45:20;;;;;;;6.47;1.67;;;20.50;60.30;;;;;;4986875;28;20496;-61
2022/07/07 06:47:46;;;;;;;3.38;0.90;;;20.40;60.00;;;;;;4995219;28;20050;-62
2022/07/07 06:50:12;;;;;;;3.97;1.05;;;20.40;60.00;;;;;;4994681;28;20049;-62
2022/07/07 06:52:37;;;;;;;4.22;1.02;;;20.40;60.30;;;;;;5012671;28;20026;-62
2022/07/07 06:55:05;;;;;;;4.90;1.25;;;20.40;60.30;;;;;;4998283;28;20117;-65
2022/07/07 06:57:30;;;;;;;6.90;1.42;;;20.30;60.30;;;;;;4975883;28;20077;-65
2022/07/07 06:59:56;;;;;;;4.28;1.13;;;20.20;60.90;;;;;;4994535;28;20081;-65
2022/07/07 07:02:21;;;;;;;2.70;0.95;;;20.10;60.80;;;;;;4995054;28;20503;-65
2022/07/07 07:04:50;;;;;;;3.83;1.13;;;20.10;61.10;;;;;;5012017;28;20038;-65
2022/07/07 07:07:16;;;;;;;2.55;0.93;;;20.00;61.40;;;;;;5012893;28;20037;-65
2022/07/07 07:09:42;;;;;;;4.07;0.65;;;20.00;61.90;;;;;;5012474;28;20350;-65
2022/07/07 07:12:08;;;;;;;4.10;1.05;;;19.90;62.00;;;;;;5012434;28;20223;-65
2022/07/07 07:14:33;;;;;;;3.45;0.60;;;19.90;62.50;;;;;;4984845;28;20042;-65
2022/07/07 07:16:59;;;;;;;3.58;0.80;;;19.90;62.70;;;;;;4993022;28;20553;-65
2022/07/07 07:19:25;;;;;;;5.13;1.35;;;19.90;63.30;;;;;;4987331;28;20129;-65
2022/07/07 07:21:50;;;;;;;3.28;1.10;;;20.00;63.50;;;;;;5012625;28;20386;-66
2022/07/07 07:24:16;;;;;;;3.97;0.90;;;20.10;63.50;;;;;;5011767;28;20511;-65
2022/07/07 07:26:42;;;;;;;4.18;0.77;;;20.20;63.10;;;;;;5012626;28;20145;-65
2022/07/07 07:29:08;;;;;;;2.33;0.60;;;20.40;62.50;;;;;;5012113;28;20188;-65
2022/07/07 07:31:33;;;;;;;1.85;0.32;;;20.50;61.30;;;;;;5015505;28;20041;-66
2022/07/07 07:33:59;;;;;;;3.30;0.70;;;20.60;60.80;;;;;;5015176;28;20033;-65
2022/07/07 07:36:24;;;;;;;1.33;0.40;;;20.60;60.40;;;;;;5015721;28;20037;-65
2022/07/07 07:38:50;;;;;;;2.83;0.50;;;20.70;60.60;;;;;;5015685;28;20404;-65
2022/07/07 07:41:18;;;;;;;2.85;0.60;;;20.80;60.40;;;;;;5015549;28;20466;-65
2022/07/07 07:43:43;;;;;;;3.30;0.93;;;20.90;60.20;;;;;;5012392;28;20121;-65
2022/07/07 07:46:09;;;;;;;3.38;0.68;;;21.00;60.60;;;;;;4996136;28;20121;-65
2022/07/07 07:48:35;;;;;;;3.92;0.68;;;21.10;60.10;;;;;;4996230;28;20104;-65
2022/07/07 07:51:00;;;;;;;5.40;1.52;;;21.20;59.30;;;;;;5015369;28;20049;-65
2022/07/07 07:53:26;;;;;;;3.75;0.80;;;21.30;58.90;;;;;;4997568;28;20120;-65
2022/07/07 07:55:53;;;;;;;4.30;1.17;;;21.30;58.70;;;;;;5010904;28;20497;-65
2022/07/07 07:58:19;;;;;;;2.92;0.70;;;21.30;58.60;;;;;;4995914;28;20498;-66
2022/07/07 08:00:44;;;;;;;3.38;0.80;;;21.30;58.50;;;;;;5013031;28;20045;-66
2022/07/07 08:03:10;;;;;;;6.22;1.10;;;21.30;58.90;;;;;;5014295;28;20108;-65
2022/07/07 08:05:36;;;;;;;3.08;0.90;;;21.20;58.60;;;;;;4993697;28;20042;-65
2022/07/07 08:08:01;;;;;;;4.32;0.90;;;21.20;58.90;;;;;;4997934;28;20120;-66
2022/07/07 08:10:27;;;;;;;5.47;1.20;;;21.10;58.90;;;;;;5015160;28;20475;-65
2022/07/07 08:12:53;;;;;;;6.13;1.10;;;21.10;58.70;;;;;;4997486;28;20050;-65
2022/07/07 08:15:19;;;;;;;6.03;1.33;;;21.00;58.70;;;;;;5008949;28;20044;-65
2022/07/07 08:17:45;;;;;;;5.72;0.90;;;20.90;58.80;;;;;;4997896;28;20362;-65
2022/07/07 08:20:11;;;;;;;3.88;0.95;;;20.90;59.10;;;;;;4997292;28;20048;-66
2022/07/07 08:22:37;;;;;;;2.88;0.60;;;20.80;58.90;;;;;;5014922;28;20042;-66
2022/07/07 08:25:04;;;;;;;3.92;0.95;;;20.80;59.20;;;;;;5014092;28;20084;-66
2022/07/07 08:27:30;;;;;;;3.75;0.80;;;20.70;59.60;;;;;;4997626;28;20054;-66
2022/07/07 08:29:55;;;;;;;4.25;0.88;;;20.50;60.00;;;;;;5014716;28;20045;-65
2022/07/07 08:32:21;;;;;;;4.25;0.95;;;20.40;60.30;;;;;;5014839;28;20034;-65
2022/07/07 08:34:47;;;;;;;2.83;0.88;;;20.40;60.90;;;;;;5006348;28;20503;-66
2022/07/07 08:37:13;;;;;;;2.35;0.70;;;20.30;61.30;;;;;;5014856;28;20046;-65
2022/07/07 08:39:39;;;;;;;3.67;0.93;;;20.30;61.20;;;;;;4996747;28;20046;-66
2022/07/07 08:42:05;;;;;;;2.65;0.65;;;20.30;61.30;;;;;;5013401;28;20050;-66
2022/07/07 08:44:31;;;;;;;3.85;0.85;;;20.30;61.10;;;;;;5013742;28;20048;-65
2022/07/07 08:46:57;;;;;;;3.95;0.82;;;20.40;61.10;;;;;;5014657;28;20042;-65
2022/07/07 08:49:23;;;;;;;5.55;1.10;;;20.30;61.10;;;;;;5014587;28;20038;-65
2022/07/07 08:51:48;;;;;;;3.80;1.20;;;20.30;61.60;;;;;;4996792;28;20052;-65
2022/07/07 08:54:16;;;;;;;3.50;0.95;;;20.30;62.00;;;;;;5006728;28;20485;-66
2022/07/07 08:56:43;;;;;;;4.60;1.42;;;20.40;62.30;;;;;;5011734;28;20489;-66
2022/07/07 08:59:13;;;;;;;6.28;0.82;;;20.40;62.30;;;;;;5014526;28;20042;-66
2022/07/07 09:01:39;;;;;;;4.40;1.33;;;20.50;62.30;;;;;;4996177;28;20042;-65
2022/07/07 09:04:06;;;;;;;4.63;1.17;;;20.50;62.50;;;;;;4990710;28;20057;-66
2022/07/07 09:06:32;;;;;;;4.43;1.40;;;20.50;61.90;;;;;;5008781;28;20045;-65
2022/07/07 09:08:58;;;;;;;3.25;1.10;;;20.60;61.60;;;;;;4996332;28;20065;-65
2022/07/07 09:11:29;;;;;;;3.45;1.00;;;20.60;61.10;;;;;;4996148;28;20030;-66
2022/07/07 09:14:11;;;;;;;4.68;0.95;;;20.70;60.90;;;;;;4995641;28;20049;-66
2022/07/07 09:16:38;;;;;;;4.47;1.08;;;20.70;60.40;;;;;;4996399;28;20165;-66
2022/07/07 09:19:16;;;;;;;4.03;1.15;;;20.70;60.20;;;;;;4996379;28;20046;-66
2022/07/07 09:21:42;;;;;;;7.13;1.10;;;20.80;60.00;;;;;;4996142;28;20050;-65
2022/07/07 09:24:07;;;;;;;3.72;0.98;;;20.70;60.10;;;;;;4990040;28;20370;-65
2022/07/07 09:26:40;;;;;;;5.38;0.90;;;20.70;60.10;;;;;;4989043;28;20104;-65
2022/07/07 09:29:27;;;;;;;4.73;1.40;;;20.70;60.30;;;;;;4996181;28;20148;-65
2022/07/07 09:31:59;;;;;;;4.43;1.27;;;20.70;61.00;;;;;;5013035;28;20049;-66
2022/07/07 09:34:30;;;;;;;5.20;1.60;;;20.70;61.10;;;;;;4995063;28;20049;-65
2022/07/07 09:39:43;;;;;;;4.10;1.13;;;20.60;61.70;;;;;;5011128;28;20624;-65
2022/07/07 09:42:28;;;;;;;3.83;1.20;;;20.60;61.30;;;;;;4996071;28;20510;-65
2022/07/07 09:44:57;;;;;;;5.45;1.02;;;20.60;61.30;;;;;;5006768;28;20034;-66
2022/07/07 09:47:24;;;;;;;4.65;1.40;;;20.50;61.50;;;;;;4995422;28;20041;-65
2022/07/07 09:50:03;;;;;;;5.75;1.27;;;20.50;61.60;;;;;;5008534;28;20092;-65
2022/07/07 09:52:30;;;;;;;8.52;1.77;;;20.50;61.50;;;;;;5007697;28;20117;-65
2022/07/07 09:54:57;;;;;;;7.95;1.45;;;20.50;61.50;;;;;;4989718;28;20046;-65
2022/07/07 09:57:23;;;;;;;5.22;1.27;;;20.50;62.00;;;;;;4991423;28;20370;-65
2022/07/07 09:59:48;;;;;;;3.47;1.10;;;20.50;62.40;;;;;;4992212;28;20091;-66
2022/07/07 10:02:35;;;;;;;3.88;1.20;;;20.60;62.00;;;;;;5007481;28;20042;-66
2022/07/07 10:05:01;;;;;;;6.00;1.25;;;20.70;61.60;;;;;;5009976;28;20045;-65
2022/07/07 10:07:30;;;;;;;2.45;0.77;;;20.70;61.20;;;;;;5008442;28;20122;-65
2022/07/07 10:10:07;;;;;;;5.30;1.33;;;20.70;60.60;;;;;;4991841;28;20038;-65
2022/07/07 10:12:37;;;;;;;3.33;1.10;;;20.70;60.40;;;;;;4972183;28;20030;-65
2022/07/07 10:15:11;;;;;;;4.03;1.27;;;20.60;60.60;;;;;;4993984;28;20046;-66
2022/07/07 10:17:38;;;;;;;4.47;0.70;;;20.60;60.80;;;;;;4995662;28;20084;-65
2022/07/07 10:20:05;;;;;;;5.57;1.25;;;20.60;60.90;;;;;;4995557;28;20111;-65
2022/07/07 10:22:32;;;;;;;5.05;1.38;;;20.50;60.90;;;;;;5010238;28;20080;-65
2022/07/07 10:25:00;;;;;;;6.47;1.30;;;20.50;61.00;;;;;;5013317;28;20100;-65
2022/07/07 10:27:28;;;;;;;3.33;0.80;;;20.50;61.30;;;;;;5010775;28;20049;-65
2022/07/07 10:29:58;;;;;;;5.18;0.75;;;20.50;61.50;;;;;;5011096;28;20038;-65
2022/07/07 10:32:49;;;;;;;4.22;1.10;;;20.50;61.70;;;;;;5008308;28;20515;-65
2022/07/07 10:35:16;;;;;;;4.65;0.85;;;20.50;61.70;;;;;;4990510;28;20065;-65
2022/07/07 10:37:49;;;;;;;3.22;0.95;;;20.40;61.90;;;;;;5008288;28;20046;-65
2022/07/07 10:40:27;;;;;;;2.10;1.02;;;20.40;62.20;;;;;;5007701;28;20418;-66
2022/07/07 10:43:29;;;;;;;2.67;1.02;;;20.40;62.10;;;;;;5008263;28;20541;-66
2022/07/07 10:45:55;;;;;;;5.65;1.25;;;20.40;62.00;;;;;;5012446;28;20440;-66
2022/07/07 10:48:43;;;;;;;4.20;1.00;;;20.30;62.10;;;;;;4994603;28;20049;-66
2022/07/07 10:51:24;;;;;;;4.90;1.40;;;20.30;62.10;;;;;;5009636;28;20526;-65
2022/07/07 10:54:08;;;;;;;5.32;1.67;;;20.20;62.30;;;;;;4993528;28;20390;-66
2022/07/07 10:56:53;;;;;;;5.90;1.30;;;20.10;62.70;;;;;;4985051;28;20038;-65
2022/07/07 10:59:20;;;;;;;6.60;1.67;;;20.10;62.50;;;;;;5004629;28;20045;-65
2022/07/07 11:02:01;;;;;;;6.68;1.98;;;20.00;63.00;;;;;;5012063;28;20073;-65
2022/07/07 11:04:42;;;;;;;6.57;1.83;;;20.00;62.80;;;;;;5012862;28;20038;-66
2022/07/07 11:07:14;;;;;;;5.95;1.50;;;19.90;62.30;;;;;;4998057;28;20086;-65
2022/07/07 11:10:03;;;;;;;9.25;1.90;;;19.80;62.40;;;;;;5016790;28;20046;-65
2022/07/07 11:12:41;;;;;;;9.10;2.25;;;19.80;62.30;;;;;;5015373;28;20116;-65
2022/07/07 11:15:20;;;;;;;8.02;1.77;;;19.70;62.10;;;;;;4998499;28;20413;-65
2022/07/07 11:17:53;;;;;;;9.45;1.90;;;19.70;61.80;;;;;;5016208;28;20049;-65
2022/07/07 11:20:22;;;;;;;10.75;2.15;;;19.70;61.60;;;;;;5016760;28;20045;-66
2022/07/07 11:22:50;;;;;;;7.10;1.65;;;19.70;61.30;;;;;;5014423;28;20121;-67
2022/07/07 11:25:21;;;;;;;9.88;2.10;;;19.70;61.30;;;;;;4996666;28;20044;-66
2022/07/07 11:27:49;;;;;;;14.23;2.45;;;19.60;60.00;;;;;;5015640;28;20081;-66
2022/07/07 11:30:16;;;;;;;11.88;2.47;;;19.60;59.30;;;;;;5015891;28;20052;-66
2022/07/07 11:32:43;;;;;;;11.27;3.15;;;19.60;58.80;;;;;;5007703;28;20121;-66
2022/07/07 11:35:11;;;;;;;8.38;2.33;;;19.50;58.30;;;;;;5007402;28;20401;-66
2022/07/07 11:37:42;;;;;;;11.13;2.53;;;19.50;58.10;;;;;;5007323;28;20112;-66
2022/07/07 11:40:14;;;;;;;18.70;3.13;;;19.50;58.10;;;;;;4989971;28;20053;-67
2022/07/07 11:42:42;;;;;;;9.95;2.22;;;19.50;57.80;;;;;;5005927;28;20109;-66
2022/07/07 11:45:21;;;;;;;10.70;2.25;;;19.50;57.60;;;;;;5008057;28;20131;-66
2022/07/07 11:47:49;;;;;;;7.53;1.85;;;19.50;57.30;;;;;;5007422;28;20396;-66
2022/07/07 11:50:15;;;;;;;9.25;2.10;;;19.50;57.20;;;;;;5007171;28;20037;-66
2022/07/07 11:52:54;;;;;;;10.02;2.53;;;19.60;56.40;;;;;;5007594;28;20041;-66
2022/07/07 11:55:22;;;;;;;9.80;1.85;;;19.60;55.90;;;;;;5007827;28;20523;-66
2022/07/07 11:57:54;;;;;;;6.53;1.88;;;19.70;56.00;;;;;;5006509;28;20045;-66
2022/07/07 12:00:25;;;;;;;5.80;1.52;;;19.70;55.70;;;;;;4988740;28;20060;-67
2022/07/07 12:02:52;;;;;;;8.15;1.75;;;19.70;55.70;;;;;;4989092;28;20049;-66
2022/07/07 12:05:22;;;;;;;7.28;2.00;;;19.80;55.60;;;;;;4989845;28;20057;-66
2022/07/07 12:07:56;;;;;;;8.80;1.85;;;19.90;55.60;;;;;;4989035;28;20153;-67
2022/07/07 12:10:24;;;;;;;7.30;1.80;;;19.90;55.20;;;;;;5005285;28;20049;-67
2022/07/07 12:13:02;;;;;;;7.10;2.60;;;19.90;55.10;;;;;;5006980;28;20050;-66
2022/07/07 12:15:31;;;;;;;7.80;1.77;;;20.00;54.90;;;;;;4988751;28;20862;-67
2022/07/07 12:17:57;;;;;;;8.02;1.98;;;20.10;55.00;;;;;;5007267;28;20049;-67
2022/07/07 12:20:24;;;;;;;8.27;1.90;;;20.20;54.60;;;;;;5006580;28;20136;-67
2022/07/07 12:22:57;;;;;;;7.00;1.50;;;20.20;53.80;;;;;;5006600;28;20647;-67
2022/07/07 12:25:28;;;;;;;13.35;2.60;;;20.20;54.20;;;;;;4989133;28;20038;-67
2022/07/07 12:27:55;;;;;;;9.93;2.05;;;20.30;53.50;;;;;;4989670;28;20132;-67
2022/07/07 12:30:21;;;;;;;7.15;1.52;;;20.30;53.60;;;;;;4989225;28;20042;-67
2022/07/07 12:32:47;;;;;;;9.23;2.05;;;20.30;53.50;;;;;;4988838;28;20137;-66
2022/07/07 12:35:37;;;;;;;7.70;1.83;;;20.40;53.50;;;;;;5005592;28;20125;-66
2022/07/07 12:38:05;;;;;;;7.50;1.75;;;20.30;53.10;;;;;;5006091;28;20779;-66
2022/07/07 12:40:33;;;;;;;7.35;1.85;;;20.40;53.30;;;;;;5006296;28;20132;-67
2022/07/07 12:43:07;;;;;;;8.18;1.67;;;20.40;53.30;;;;;;4988949;28;20049;-66
2022/07/07 12:45:33;;;;;;;;;;;20.40;53.70;;;;;;5006726;28;20034;-67
2022/07/07 12:47:59;;;;;;;6.82;1.77;;;20.50;54.30;;;;;;5006218;28;19931;-67
2022/07/07 12:50:25;;;;;;;7.53;2.05;;;20.50;53.60;;;;;;5005935;28;20053;-67
2022/07/07 12:53:00;;;;;;;9.55;1.88;;;20.50;53.20;;;;;;4988736;28;20046;-66
2022/07/07 12:55:39;;;;;;;7.70;2.30;;;20.40;53.00;;;;;;5006163;28;20042;-66
2022/07/07 12:58:17;;;;;;;9.00;2.58;;;20.50;53.10;;;;;;4988070;28;20049;-66